sensor_id;sensor_type;location;lat;lon;timestamp;pressure;altitude;pressure_sealevel;temperature;humidity
74716;BME280;63234;37.558;127.058;2023-06-24T00:00:57;94854.63;;;20.78;72.79
74716;BME280;63234;37.558;127.058;2023-06-24T00:03:22;94855.16;;;20.73;73.08
74716;BME280;63234;37.558;127.058;2023-06-24T00:05:48;94845.09;;;20.74;73.13
74716;BME280;63234;37.558;127.058;2023-06-24T00:08:18;94851.25;;;20.74;73.00
74716;BME280;63234;37.558;127.058;2023-06-24T00:10:47;94850.28;;;20.84;72.50
74716;BME280;63234;37.558;127.058;2023-06-24T00:13:16;94853.25;;;20.90;72.61
74716;BME280;63234;37.558;127.058;2023-06-24T00:15:42;94844.13;;;20.84;72.76
74716;BME280;63234;37.558;127.058;2023-06-24T00:18:11;94852.22;;;20.84;72.53
74716;BME280;63234;37.558;127.058;2023-06-24T00:20:38;94858.16;;;20.95;72.28
74716;BME280;63234;37.558;127.058;2023-06-24T00:23:03;94867.19;;;20.89;72.89
74716;BME280;63234;37.558;127.058;2023-06-24T00:25:29;94865.44;;;20.78;72.90
74716;BME280;63234;37.558;127.058;2023-06-24T00:27:55;94865.31;;;20.85;72.73
74716;BME280;63234;37.558;127.058;2023-06-24T00:30:22;94872.69;;;20.81;72.42
74716;BME280;63234;37.558;127.058;2023-06-24T00:32:48;94881.63;;;20.78;72.97
74716;BME280;63234;37.558;127.058;2023-06-24T00:35:14;94874.88;;;20.70;72.96
74716;BME280;63234;37.558;127.058;2023-06-24T00:37:40;94875.34;;;20.65;73.17
74716;BME280;63234;37.558;127.058;2023-06-24T00:40:08;94872.28;;;20.63;73.26
74716;BME280;63234;37.558;127.058;2023-06-24T00:42:43;94885.78;;;20.63;73.52
74716;BME280;63234;37.558;127.058;2023-06-24T00:45:09;94881.78;;;20.71;73.15
74716;BME280;63234;37.558;127.058;2023-06-24T00:47:36;94882.16;;;20.50;73.61
74716;BME280;63234;37.558;127.058;2023-06-24T00:50:01;94887.97;;;20.48;73.67
74716;BME280;63234;37.558;127.058;2023-06-24T00:52:27;94883.84;;;20.64;73.35
74716;BME280;63234;37.558;127.058;2023-06-24T00:54:52;94888.16;;;20.61;73.51
74716;BME280;63234;37.558;127.058;2023-06-24T00:57:19;94884.81;;;20.53;73.56
74716;BME280;63234;37.558;127.058;2023-06-24T00:59:50;94882.28;;;20.43;74.10
74716;BME280;63234;37.558;127.058;2023-06-24T01:02:20;94888.84;;;20.42;73.67
74716;BME280;63234;37.558;127.058;2023-06-24T01:04:47;94890.75;;;20.21;74.46
74716;BME280;63234;37.558;127.058;2023-06-24T01:07:14;94892.72;;;20.17;74.64
74716;BME280;63234;37.558;127.058;2023-06-24T01:09:40;94891.22;;;20.16;74.72
74716;BME280;63234;37.558;127.058;2023-06-24T01:12:06;94889.34;;;20.13;74.35
74716;BME280;63234;37.558;127.058;2023-06-24T01:14:34;94890.50;;;20.12;74.39
74716;BME280;63234;37.558;127.058;2023-06-24T01:17:05;94894.81;;;19.82;75.27
74716;BME280;63234;37.558;127.058;2023-06-24T01:20:07;94898.28;;;19.83;75.09
74716;BME280;63234;37.558;127.058;2023-06-24T01:25:43;94893.91;;;19.65;75.92
74716;BME280;63234;37.558;127.058;2023-06-24T01:34:01;94893.09;;;19.68;75.38
74716;BME280;63234;37.558;127.058;2023-06-24T01:36:33;94890.13;;;19.59;75.66
74716;BME280;63234;37.558;127.058;2023-06-24T01:39:05;94891.69;;;19.57;75.91
74716;BME280;63234;37.558;127.058;2023-06-24T01:41:38;94895.50;;;19.63;75.75
74716;BME280;63234;37.558;127.058;2023-06-24T01:44:07;94897.59;;;19.79;75.29
74716;BME280;63234;37.558;127.058;2023-06-24T01:46:35;94897.16;;;19.80;75.34
74716;BME280;63234;37.558;127.058;2023-06-24T01:49:03;94896.75;;;19.55;75.74
74716;BME280;63234;37.558;127.058;2023-06-24T01:51:30;94896.50;;;19.45;75.89
74716;BME280;63234;37.558;127.058;2023-06-24T01:54:06;94892.25;;;19.44;76.21
74716;BME280;63234;37.558;127.058;2023-06-24T01:56:32;94894.88;;;19.52;75.88
74716;BME280;63234;37.558;127.058;2023-06-24T01:59:00;94887.31;;;19.70;75.41
74716;BME280;63234;37.558;127.058;2023-06-24T02:01:30;94889.19;;;19.73;75.15
74716;BME280;63234;37.558;127.058;2023-06-24T02:03:57;94880.75;;;19.71;75.38
74716;BME280;63234;37.558;127.058;2023-06-24T02:06:26;94881.97;;;19.93;74.59
74716;BME280;63234;37.558;127.058;2023-06-24T02:08:54;94883.09;;;19.92;74.74
74716;BME280;63234;37.558;127.058;2023-06-24T02:11:22;94883.34;;;20.02;74.65
74716;BME280;63234;37.558;127.058;2023-06-24T02:13:50;94900.00;;;19.97;74.69
74716;BME280;63234;37.558;127.058;2023-06-24T02:16:17;94900.66;;;19.77;75.39
74716;BME280;63234;37.558;127.058;2023-06-24T02:18:44;94905.72;;;19.75;75.41
74716;BME280;63234;37.558;127.058;2023-06-24T02:21:10;94909.94;;;19.76;75.29
74716;BME280;63234;37.558;127.058;2023-06-24T02:23:37;94908.22;;;19.59;75.45
74716;BME280;63234;37.558;127.058;2023-06-24T02:26:06;94911.28;;;19.61;75.60
74716;BME280;63234;37.558;127.058;2023-06-24T02:28:33;94916.75;;;19.54;75.88
74716;BME280;63234;37.558;127.058;2023-06-24T02:30:59;94929.78;;;19.59;75.54
74716;BME280;63234;37.558;127.058;2023-06-24T02:33:25;94924.13;;;19.49;76.00
74716;BME280;63234;37.558;127.058;2023-06-24T02:35:52;94932.91;;;19.54;75.95
74716;BME280;63234;37.558;127.058;2023-06-24T02:38:18;94927.81;;;19.63;75.37
74716;BME280;63234;37.558;127.058;2023-06-24T02:40:45;94931.66;;;19.62;75.41
74716;BME280;63234;37.558;127.058;2023-06-24T02:43:11;94946.59;;;19.70;75.50
74716;BME280;63234;37.558;127.058;2023-06-24T02:45:37;94958.44;;;19.76;75.11
74716;BME280;63234;37.558;127.058;2023-06-24T02:48:04;94967.63;;;19.79;75.41
74716;BME280;63234;37.558;127.058;2023-06-24T02:50:30;94986.06;;;19.49;76.50
74716;BME280;63234;37.558;127.058;2023-06-24T02:52:56;94969.31;;;19.35;77.52
74716;BME280;63234;37.558;127.058;2023-06-24T02:55:22;94965.59;;;19.56;77.36
74716;BME280;63234;37.558;127.058;2023-06-24T02:57:48;94953.53;;;19.67;76.65
74716;BME280;63234;37.558;127.058;2023-06-24T03:00:16;94961.44;;;19.82;75.98
74716;BME280;63234;37.558;127.058;2023-06-24T03:02:43;94961.03;;;19.83;76.07
74716;BME280;63234;37.558;127.058;2023-06-24T03:05:10;94962.41;;;19.95;75.30
74716;BME280;63234;37.558;127.058;2023-06-24T03:07:36;94951.16;;;20.00;74.47
74716;BME280;63234;37.558;127.058;2023-06-24T03:10:03;94961.38;;;20.12;74.23
74716;BME280;63234;37.558;127.058;2023-06-24T03:12:30;94968.94;;;20.21;73.95
74716;BME280;63234;37.558;127.058;2023-06-24T03:14:55;94968.81;;;20.28;73.54
74716;BME280;63234;37.558;127.058;2023-06-24T03:17:21;94962.91;;;20.37;73.00
74716;BME280;63234;37.558;127.058;2023-06-24T03:19:46;94965.91;;;20.43;72.78
74716;BME280;63234;37.558;127.058;2023-06-24T03:22:12;94972.47;;;20.65;71.87
74716;BME280;63234;37.558;127.058;2023-06-24T03:24:37;94972.00;;;20.70;71.48
74716;BME280;63234;37.558;127.058;2023-06-24T03:27:03;94973.06;;;20.76;71.14
74716;BME280;63234;37.558;127.058;2023-06-24T03:29:28;94971.25;;;20.90;70.74
74716;BME280;63234;37.558;127.058;2023-06-24T03:31:54;94981.25;;;20.93;70.16
74716;BME280;63234;37.558;127.058;2023-06-24T03:34:19;94972.81;;;21.11;69.29
74716;BME280;63234;37.558;127.058;2023-06-24T03:36:45;94986.13;;;21.21;68.75
74716;BME280;63234;37.558;127.058;2023-06-24T03:39:10;94989.97;;;21.20;68.46
74716;BME280;63234;37.558;127.058;2023-06-24T03:41:36;94987.41;;;21.13;68.59
74716;BME280;63234;37.558;127.058;2023-06-24T03:44:02;94989.97;;;21.20;68.52
74716;BME280;63234;37.558;127.058;2023-06-24T03:46:27;95002.56;;;21.27;68.08
74716;BME280;63234;37.558;127.058;2023-06-24T03:48:58;94996.50;;;21.23;67.85
74716;BME280;63234;37.558;127.058;2023-06-24T03:51:23;95006.06;;;21.27;67.55
74716;BME280;63234;37.558;127.058;2023-06-24T03:53:49;94998.41;;;21.46;67.22
74716;BME280;63234;37.558;127.058;2023-06-24T03:56:15;95000.31;;;21.45;66.65
74716;BME280;63234;37.558;127.058;2023-06-24T03:58:41;95006.28;;;21.57;66.52
74716;BME280;63234;37.558;127.058;2023-06-24T04:01:06;94997.13;;;21.50;66.71
74716;BME280;63234;37.558;127.058;2023-06-24T04:03:31;94997.44;;;21.72;66.44
74716;BME280;63234;37.558;127.058;2023-06-24T04:05:57;95000.31;;;21.65;65.97
74716;BME280;63234;37.558;127.058;2023-06-24T04:08:23;94993.25;;;21.88;65.80
74716;BME280;63234;37.558;127.058;2023-06-24T04:10:54;94998.94;;;21.93;65.39
74716;BME280;63234;37.558;127.058;2023-06-24T04:13:20;94990.72;;;21.97;65.21
74716;BME280;63234;37.558;127.058;2023-06-24T04:15:45;94989.88;;;22.00;64.77
74716;BME280;63234;37.558;127.058;2023-06-24T04:18:11;94985.09;;;22.08;64.70
74716;BME280;63234;37.558;127.058;2023-06-24T04:20:36;94993.75;;;22.19;64.67
74716;BME280;63234;37.558;127.058;2023-06-24T04:23:03;94983.31;;;22.01;64.63
74716;BME280;63234;37.558;127.058;2023-06-24T04:25:29;94989.22;;;22.12;64.95
74716;BME280;63234;37.558;127.058;2023-06-24T04:27:55;94986.31;;;22.23;64.24
74716;BME280;63234;37.558;127.058;2023-06-24T04:30:20;94988.44;;;22.32;64.52
74716;BME280;63234;37.558;127.058;2023-06-24T04:32:46;94986.00;;;22.37;63.83
74716;BME280;63234;37.558;127.058;2023-06-24T04:35:11;94988.22;;;22.72;62.88
74716;BME280;63234;37.558;127.058;2023-06-24T04:37:36;94982.47;;;22.86;62.36
74716;BME280;63234;37.558;127.058;2023-06-24T04:40:02;94983.16;;;22.74;62.96
74716;BME280;63234;37.558;127.058;2023-06-24T04:42:28;94987.41;;;22.58;63.69
74716;BME280;63234;37.558;127.058;2023-06-24T04:44:53;94992.19;;;22.67;63.58
74716;BME280;63234;37.558;127.058;2023-06-24T04:47:19;94988.44;;;22.94;62.32
74716;BME280;63234;37.558;127.058;2023-06-24T04:49:44;94984.31;;;22.89;63.00
74716;BME280;63234;37.558;127.058;2023-06-24T04:52:11;94977.81;;;22.86;62.42
74716;BME280;63234;37.558;127.058;2023-06-24T04:54:36;94981.97;;;22.75;63.02
74716;BME280;63234;37.558;127.058;2023-06-24T04:57:02;94987.94;;;22.82;63.04
74716;BME280;63234;37.558;127.058;2023-06-24T04:59:27;94990.66;;;22.99;62.58
74716;BME280;63234;37.558;127.058;2023-06-24T05:01:53;94990.38;;;23.09;62.39
74716;BME280;63234;37.558;127.058;2023-06-24T05:04:18;94988.44;;;23.10;62.29
74716;BME280;63234;37.558;127.058;2023-06-24T05:06:44;94982.84;;;23.30;61.83
74716;BME280;63234;37.558;127.058;2023-06-24T05:09:09;94985.44;;;23.21;61.75
74716;BME280;63234;37.558;127.058;2023-06-24T05:11:39;94987.09;;;22.85;63.24
74716;BME280;63234;37.558;127.058;2023-06-24T05:14:04;94985.22;;;23.28;61.99
74716;BME280;63234;37.558;127.058;2023-06-24T05:16:30;94999.84;;;23.18;62.51
74716;BME280;63234;37.558;127.058;2023-06-24T05:18:55;95007.22;;;23.17;62.12
74716;BME280;63234;37.558;127.058;2023-06-24T05:21:21;95009.13;;;23.46;61.53
74716;BME280;63234;37.558;127.058;2023-06-24T05:23:46;95003.88;;;23.68;60.78
74716;BME280;63234;37.558;127.058;2023-06-24T05:26:12;95002.63;;;23.43;61.38
74716;BME280;63234;37.558;127.058;2023-06-24T05:28:37;95009.50;;;23.61;61.53
74716;BME280;63234;37.558;127.058;2023-06-24T05:31:02;95019.41;;;23.38;62.10
74716;BME280;63234;37.558;127.058;2023-06-24T05:33:28;95034.09;;;23.53;61.68
74716;BME280;63234;37.558;127.058;2023-06-24T05:35:53;95026.75;;;23.67;61.58
74716;BME280;63234;37.558;127.058;2023-06-24T05:38:19;95030.84;;;24.13;60.31
74716;BME280;63234;37.558;127.058;2023-06-24T05:40:44;95035.16;;;23.98;60.06
74716;BME280;63234;37.558;127.058;2023-06-24T05:43:10;95023.03;;;23.90;60.68
74716;BME280;63234;37.558;127.058;2023-06-24T05:45:36;95033.34;;;24.33;60.04
74716;BME280;63234;37.558;127.058;2023-06-24T05:48:02;95011.41;;;24.27;59.75
74716;BME280;63234;37.558;127.058;2023-06-24T05:50:28;95023.66;;;24.07;60.40
74716;BME280;63234;37.558;127.058;2023-06-24T05:52:53;95022.81;;;24.48;59.78
74716;BME280;63234;37.558;127.058;2023-06-24T05:55:19;95024.50;;;24.80;58.74
74716;BME280;63234;37.558;127.058;2023-06-24T05:57:44;95038.06;;;24.80;58.84
74716;BME280;63234;37.558;127.058;2023-06-24T06:00:10;95039.22;;;24.57;59.50
74716;BME280;63234;37.558;127.058;2023-06-24T06:02:36;95041.75;;;24.99;58.52
74716;BME280;63234;37.558;127.058;2023-06-24T06:05:02;95037.97;;;24.84;58.77
74716;BME280;63234;37.558;127.058;2023-06-24T06:07:28;95039.06;;;24.86;59.08
74716;BME280;63234;37.558;127.058;2023-06-24T06:09:53;95027.88;;;24.84;59.29
74716;BME280;63234;37.558;127.058;2023-06-24T06:12:19;95025.28;;;24.68;60.01
74716;BME280;63234;37.558;127.058;2023-06-24T06:14:44;95031.19;;;24.54;60.29
74716;BME280;63234;37.558;127.058;2023-06-24T06:17:13;95041.69;;;24.64;60.23
74716;BME280;63234;37.558;127.058;2023-06-24T06:19:39;95047.47;;;25.01;59.48
74716;BME280;63234;37.558;127.058;2023-06-24T06:22:06;95042.88;;;24.76;59.93
74716;BME280;63234;37.558;127.058;2023-06-24T06:24:32;95037.13;;;24.61;60.62
74716;BME280;63234;37.558;127.058;2023-06-24T06:26:58;95042.00;;;24.79;60.23
74716;BME280;63234;37.558;127.058;2023-06-24T06:29:24;95046.91;;;24.71;60.32
74716;BME280;63234;37.558;127.058;2023-06-24T06:31:49;95051.72;;;24.42;61.25
74716;BME280;63234;37.558;127.058;2023-06-24T06:34:15;95047.03;;;24.42;61.55
74716;BME280;63234;37.558;127.058;2023-06-24T06:36:40;95041.81;;;24.48;61.34
74716;BME280;63234;37.558;127.058;2023-06-24T06:39:06;95043.22;;;24.53;60.86
74716;BME280;63234;37.558;127.058;2023-06-24T06:41:31;95040.75;;;25.06;59.56
74716;BME280;63234;37.558;127.058;2023-06-24T06:43:56;95037.78;;;25.13;59.11
74716;BME280;63234;37.558;127.058;2023-06-24T06:46:22;95041.47;;;25.19;59.40
74716;BME280;63234;37.558;127.058;2023-06-24T06:48:48;95031.06;;;25.17;59.16
74716;BME280;63234;37.558;127.058;2023-06-24T06:51:14;95038.56;;;25.13;59.37
74716;BME280;63234;37.558;127.058;2023-06-24T06:53:39;95036.09;;;25.28;58.81
74716;BME280;63234;37.558;127.058;2023-06-24T06:56:05;95037.94;;;25.31;59.05
74716;BME280;63234;37.558;127.058;2023-06-24T06:58:30;95036.50;;;25.83;57.96
74716;BME280;63234;37.558;127.058;2023-06-24T07:00:56;95024.66;;;25.55;58.36
74716;BME280;63234;37.558;127.058;2023-06-24T07:03:26;95034.00;;;25.76;58.25
74716;BME280;63234;37.558;127.058;2023-06-24T07:05:53;95024.19;;;25.48;58.17
74716;BME280;63234;37.558;127.058;2023-06-24T07:08:18;95013.97;;;25.83;57.48
74716;BME280;63234;37.558;127.058;2023-06-24T07:10:43;95006.78;;;25.98;57.29
74716;BME280;63234;37.558;127.058;2023-06-24T07:13:09;94999.63;;;25.82;57.80
74716;BME280;63234;37.558;127.058;2023-06-24T07:15:35;95000.97;;;26.09;56.99
74716;BME280;63234;37.558;127.058;2023-06-24T07:18:00;94992.91;;;25.74;58.24
74716;BME280;63234;37.558;127.058;2023-06-24T07:20:26;95000.72;;;26.25;57.17
74716;BME280;63234;37.558;127.058;2023-06-24T07:22:51;95002.78;;;26.52;55.88
74716;BME280;63234;37.558;127.058;2023-06-24T07:25:17;95004.81;;;26.30;56.63
74716;BME280;63234;37.558;127.058;2023-06-24T07:27:42;95007.84;;;26.32;56.79
74716;BME280;63234;37.558;127.058;2023-06-24T07:30:08;94998.66;;;26.48;56.67
74716;BME280;63234;37.558;127.058;2023-06-24T07:32:33;94991.97;;;26.40;57.02
74716;BME280;63234;37.558;127.058;2023-06-24T07:34:59;94977.16;;;26.41;56.93
74716;BME280;63234;37.558;127.058;2023-06-24T07:37:24;94976.53;;;26.27;57.35
74716;BME280;63234;37.558;127.058;2023-06-24T07:39:50;94979.88;;;26.41;56.90
74716;BME280;63234;37.558;127.058;2023-06-24T07:42:15;94984.31;;;26.57;56.31
74716;BME280;63234;37.558;127.058;2023-06-24T07:44:47;95005.47;;;26.03;58.17
74716;BME280;63234;37.558;127.058;2023-06-24T07:47:13;95009.72;;;26.13;57.59
74716;BME280;63234;37.558;127.058;2023-06-24T07:49:39;95023.69;;;26.24;57.93
74716;BME280;63234;37.558;127.058;2023-06-24T07:52:05;95044.66;;;25.83;59.31
74716;BME280;63234;37.558;127.058;2023-06-24T07:54:31;95055.03;;;25.54;59.90
74716;BME280;63234;37.558;127.058;2023-06-24T07:56:57;95049.22;;;25.43;60.17
74716;BME280;63234;37.558;127.058;2023-06-24T07:59:22;95057.03;;;25.40;60.17
74716;BME280;63234;37.558;127.058;2023-06-24T08:01:48;95067.94;;;25.62;59.02
74716;BME280;63234;37.558;127.058;2023-06-24T08:04:14;95088.28;;;26.02;58.26
74716;BME280;63234;37.558;127.058;2023-06-24T08:06:40;95081.47;;;25.75;58.61
74716;BME280;63234;37.558;127.058;2023-06-24T08:09:05;95093.25;;;25.72;58.73
74716;BME280;63234;37.558;127.058;2023-06-24T08:11:31;95093.91;;;25.42;59.74
74716;BME280;63234;37.558;127.058;2023-06-24T08:13:56;95104.72;;;25.32;60.61
74716;BME280;63234;37.558;127.058;2023-06-24T08:16:22;95121.44;;;25.31;59.92
74716;BME280;63234;37.558;127.058;2023-06-24T08:18:47;95130.59;;;25.24;60.49
74716;BME280;63234;37.558;127.058;2023-06-24T08:21:13;95136.59;;;25.19;60.73
74716;BME280;63234;37.558;127.058;2023-06-24T08:23:38;95152.13;;;25.06;60.69
74716;BME280;63234;37.558;127.058;2023-06-24T08:26:04;95155.63;;;24.93;60.77
74716;BME280;63234;37.558;127.058;2023-06-24T08:28:29;95160.84;;;24.75;61.11
74716;BME280;63234;37.558;127.058;2023-06-24T08:30:55;95158.78;;;24.66;60.97
74716;BME280;63234;37.558;127.058;2023-06-24T08:33:20;95165.50;;;24.49;61.75
74716;BME280;63234;37.558;127.058;2023-06-24T08:35:46;95157.28;;;24.65;61.43
74716;BME280;63234;37.558;127.058;2023-06-24T08:38:11;95149.09;;;24.91;61.10
74716;BME280;63234;37.558;127.058;2023-06-24T08:40:38;95146.38;;;24.91;61.20
74716;BME280;63234;37.558;127.058;2023-06-24T08:43:06;95139.22;;;24.84;60.90
74716;BME280;63234;37.558;127.058;2023-06-24T08:45:31;95122.44;;;25.24;59.81
74716;BME280;63234;37.558;127.058;2023-06-24T08:47:58;95116.09;;;25.62;58.33
74716;BME280;63234;37.558;127.058;2023-06-24T08:50:27;95105.16;;;25.88;57.59
74716;BME280;63234;37.558;127.058;2023-06-24T08:52:56;95102.56;;;25.71;55.37
74716;BME280;63234;37.558;127.058;2023-06-24T08:55:23;95091.19;;;26.29;53.52
74716;BME280;63234;37.558;127.058;2023-06-24T08:57:53;95106.63;;;25.67;55.06
74716;BME280;63234;37.558;127.058;2023-06-24T09:00:18;95104.00;;;25.41;54.98
74716;BME280;63234;37.558;127.058;2023-06-24T09:02:44;95095.91;;;25.85;53.85
74716;BME280;63234;37.558;127.058;2023-06-24T09:05:10;95089.88;;;26.12;53.65
74716;BME280;63234;37.558;127.058;2023-06-24T09:07:36;95083.84;;;26.48;52.79
74716;BME280;63234;37.558;127.058;2023-06-24T09:10:02;95080.25;;;26.20;54.16
74716;BME280;63234;37.558;127.058;2023-06-24T09:12:32;95090.75;;;26.40;53.64
74716;BME280;63234;37.558;127.058;2023-06-24T09:14:58;95088.06;;;25.87;54.63
74716;BME280;63234;37.558;127.058;2023-06-24T09:17:23;95090.09;;;26.27;53.59
74716;BME280;63234;37.558;127.058;2023-06-24T09:19:49;95072.78;;;26.43;52.71
74716;BME280;63234;37.558;127.058;2023-06-24T09:22:15;95073.53;;;26.43;52.42
74716;BME280;63234;37.558;127.058;2023-06-24T09:24:45;95058.16;;;26.59;53.02
74716;BME280;63234;37.558;127.058;2023-06-24T09:27:14;95050.28;;;26.51;53.14
74716;BME280;63234;37.558;127.058;2023-06-24T09:29:41;95052.78;;;26.77;53.03
74716;BME280;63234;37.558;127.058;2023-06-24T09:32:07;95035.53;;;26.80;52.46
74716;BME280;63234;37.558;127.058;2023-06-24T09:34:34;95035.63;;;26.58;52.66
74716;BME280;63234;37.558;127.058;2023-06-24T09:37:00;95025.72;;;27.10;51.31
74716;BME280;63234;37.558;127.058;2023-06-24T09:39:27;95033.13;;;26.82;52.36
74716;BME280;63234;37.558;127.058;2023-06-24T09:41:59;95030.13;;;27.17;52.72
74716;BME280;63234;37.558;127.058;2023-06-24T09:44:27;95025.13;;;27.06;52.15
74716;BME280;63234;37.558;127.058;2023-06-24T09:46:54;95016.50;;;27.26;52.05
74716;BME280;63234;37.558;127.058;2023-06-24T09:49:21;95016.91;;;26.69;52.71
74716;BME280;63234;37.558;127.058;2023-06-24T09:51:48;95021.19;;;27.35;52.38
74716;BME280;63234;37.558;127.058;2023-06-24T09:54:15;94993.09;;;27.71;50.27
74716;BME280;63234;37.558;127.058;2023-06-24T09:57:04;95008.06;;;28.36;50.01
74716;BME280;63234;37.558;127.058;2023-06-24T09:59:31;95007.97;;;28.22;48.39
74716;BME280;63234;37.558;127.058;2023-06-24T10:01:59;95011.63;;;27.58;49.71
74716;BME280;63234;37.558;127.058;2023-06-24T10:04:27;95008.59;;;27.65;50.38
74716;BME280;63234;37.558;127.058;2023-06-24T10:06:53;95018.28;;;28.18;49.63
74716;BME280;63234;37.558;127.058;2023-06-24T10:09:19;95018.34;;;28.08;48.62
74716;BME280;63234;37.558;127.058;2023-06-24T10:11:46;95015.94;;;28.01;49.38
74716;BME280;63234;37.558;127.058;2023-06-24T10:14:13;95011.09;;;27.96;49.08
74716;BME280;63234;37.558;127.058;2023-06-24T10:16:40;95003.72;;;28.21;50.15
74716;BME280;63234;37.558;127.058;2023-06-24T10:19:06;95001.63;;;28.16;49.17
74716;BME280;63234;37.558;127.058;2023-06-24T10:22:05;94994.50;;;28.09;50.29
74716;BME280;63234;37.558;127.058;2023-06-24T10:24:45;94998.41;;;28.59;49.76
74716;BME280;63234;37.558;127.058;2023-06-24T10:27:16;95001.63;;;28.82;48.97
74716;BME280;63234;37.558;127.058;2023-06-24T10:29:46;94993.94;;;28.38;49.50
74716;BME280;63234;37.558;127.058;2023-06-24T10:32:12;94987.16;;;28.57;49.49
74716;BME280;63234;37.558;127.058;2023-06-24T10:37:20;94977.88;;;28.88;49.17
74716;BME280;63234;37.558;127.058;2023-06-24T10:44:46;94974.25;;;28.34;50.82
74716;BME280;63234;37.558;127.058;2023-06-24T10:47:11;94963.69;;;28.18;51.03
74716;BME280;63234;37.558;127.058;2023-06-24T10:49:37;94957.25;;;27.97;52.12
74716;BME280;63234;37.558;127.058;2023-06-24T10:52:02;94950.00;;;27.94;51.79
74716;BME280;63234;37.558;127.058;2023-06-24T10:54:29;94951.16;;;27.59;52.31
74716;BME280;63234;37.558;127.058;2023-06-24T10:56:54;94946.59;;;27.65;52.66
74716;BME280;63234;37.558;127.058;2023-06-24T10:59:21;94955.59;;;27.99;52.28
74716;BME280;63234;37.558;127.058;2023-06-24T11:01:53;94958.13;;;27.60;52.45
74716;BME280;63234;37.558;127.058;2023-06-24T11:04:19;94950.38;;;27.68;52.43
74716;BME280;63234;37.558;127.058;2023-06-24T11:07:00;94955.66;;;27.81;51.88
74716;BME280;63234;37.558;127.058;2023-06-24T11:09:26;94952.91;;;27.90;52.04
74716;BME280;63234;37.558;127.058;2023-06-24T11:11:52;94941.41;;;27.86;52.66
74716;BME280;63234;37.558;127.058;2023-06-24T11:14:19;94949.63;;;28.10;52.52
74716;BME280;63234;37.558;127.058;2023-06-24T11:16:48;94957.81;;;28.10;51.95
74716;BME280;63234;37.558;127.058;2023-06-24T11:19:13;94955.63;;;28.23;51.48
74716;BME280;63234;37.558;127.058;2023-06-24T11:21:39;94950.72;;;28.03;51.28
74716;BME280;63234;37.558;127.058;2023-06-24T11:24:05;94949.88;;;27.88;52.56
74716;BME280;63234;37.558;127.058;2023-06-24T11:26:32;94943.25;;;27.80;52.45
74716;BME280;63234;37.558;127.058;2023-06-24T11:28:58;94945.59;;;27.96;52.80
74716;BME280;63234;37.558;127.058;2023-06-24T11:31:25;94939.44;;;27.77;53.86
74716;BME280;63234;37.558;127.058;2023-06-24T11:33:51;94952.97;;;27.62;54.90
74716;BME280;63234;37.558;127.058;2023-06-24T11:36:18;94941.91;;;28.08;54.34
74716;BME280;63234;37.558;127.058;2023-06-24T11:38:46;94939.16;;;28.08;53.97
74716;BME280;63234;37.558;127.058;2023-06-24T11:41:11;94930.84;;;28.03;54.02
74716;BME280;63234;37.558;127.058;2023-06-24T11:43:37;94945.19;;;28.22;53.66
74716;BME280;63234;37.558;127.058;2023-06-24T11:46:02;94948.00;;;28.36;52.98
74716;BME280;63234;37.558;127.058;2023-06-24T11:48:28;94938.78;;;28.25;52.46
74716;BME280;63234;37.558;127.058;2023-06-24T11:50:54;94947.78;;;28.49;52.25
74716;BME280;63234;37.558;127.058;2023-06-24T11:53:43;94938.66;;;27.86;54.07
74716;BME280;63234;37.558;127.058;2023-06-24T11:56:10;94931.53;;;27.88;54.09
74716;BME280;63234;37.558;127.058;2023-06-24T11:58:35;94932.19;;;28.41;52.88
74716;BME280;63234;37.558;127.058;2023-06-24T12:01:01;94940.53;;;28.13;54.13
74716;BME280;63234;37.558;127.058;2023-06-24T12:03:30;94942.13;;;28.53;53.50
74716;BME280;63234;37.558;127.058;2023-06-24T12:05:57;94950.44;;;28.01;52.96
74716;BME280;63234;37.558;127.058;2023-06-24T12:08:23;94938.19;;;27.87;53.81
74716;BME280;63234;37.558;127.058;2023-06-24T12:10:48;94936.88;;;27.83;53.69
74716;BME280;63234;37.558;127.058;2023-06-24T12:13:14;94926.63;;;28.02;52.79
74716;BME280;63234;37.558;127.058;2023-06-24T12:15:40;94926.75;;;27.65;53.28
74716;BME280;63234;37.558;127.058;2023-06-24T12:18:06;94914.72;;;27.72;53.07
74716;BME280;63234;37.558;127.058;2023-06-24T12:20:33;94921.50;;;27.95;52.66
74716;BME280;63234;37.558;127.058;2023-06-24T12:23:00;94939.50;;;27.59;52.85
74716;BME280;63234;37.558;127.058;2023-06-24T12:25:25;94938.97;;;27.88;52.53
74716;BME280;63234;37.558;127.058;2023-06-24T12:27:51;94949.25;;;27.93;52.14
74716;BME280;63234;37.558;127.058;2023-06-24T12:30:16;94943.56;;;28.06;51.56
74716;BME280;63234;37.558;127.058;2023-06-24T12:32:42;94942.66;;;28.33;51.38
74716;BME280;63234;37.558;127.058;2023-06-24T12:35:08;94934.75;;;28.44;51.76
74716;BME280;63234;37.558;127.058;2023-06-24T12:37:35;94936.25;;;28.45;51.81
74716;BME280;63234;37.558;127.058;2023-06-24T12:40:01;94939.91;;;28.18;53.96
74716;BME280;63234;37.558;127.058;2023-06-24T12:42:27;94949.25;;;28.26;52.55
74716;BME280;63234;37.558;127.058;2023-06-24T12:44:53;94955.03;;;28.52;52.22
74716;BME280;63234;37.558;127.058;2023-06-24T12:47:19;94949.19;;;28.35;52.15
74716;BME280;63234;37.558;127.058;2023-06-24T12:49:44;94958.22;;;28.18;52.67
74716;BME280;63234;37.558;127.058;2023-06-24T12:52:11;94970.47;;;28.31;52.21
74716;BME280;63234;37.558;127.058;2023-06-24T12:54:37;94968.97;;;27.97;53.53